Time;durP1;ratioP1;P1;durP2;ratioP2;P2;SDS_P1;SDS_P2;PMS_P1;PMS_P2;Temp;Humidity;BMP_temperature;BMP_pressure;BME280_temperature;BME280_humidity;BME280_pressure;Samples;Min_cycle;Max_cycle;Signal;HPM_P1;HPM_P2
2023/05/21 00:01:47;;;;;;;7.28;3.95;;;14.70;99.90;;;;;;5061393;28;20452;-59
2023/05/21 00:04:14;;;;;;;7.55;4.20;;;14.70;99.90;;;;;;5060587;28;20461;-58
2023/05/21 00:06:40;;;;;;;6.53;4.10;;;14.70;99.90;;;;;;5070284;28;20035;-58
2023/05/21 00:09:06;;;;;;;7.75;4.15;;;14.70;99.90;;;;;;5073704;28;20387;-58
2023/05/21 00:11:32;;;;;;;8.80;4.32;;;14.70;99.90;;;;;;5068800;28;20491;-59
2023/05/21 00:13:58;;;;;;;6.20;4.07;;;14.70;99.90;;;;;;5069564;28;20040;-57
2023/05/21 00:16:24;;;;;;;5.88;3.92;;;14.70;99.90;;;;;;5053108;28;20095;-58
2023/05/21 00:18:50;;;;;;;5.13;3.75;;;14.70;99.90;;;;;;5052754;28;20039;-58
2023/05/21 00:21:16;;;;;;;5.80;3.70;;;14.70;99.90;;;;;;5069363;28;20044;-58
2023/05/21 00:23:44;;;;;;;6.85;4.15;;;14.60;99.90;;;;;;5087113;28;20036;-60
2023/05/21 00:26:10;;;;;;;6.85;4.20;;;14.70;99.90;;;;;;5069223;28;20328;-59
2023/05/21 00:28:35;;;;;;;6.55;4.45;;;14.70;99.90;;;;;;5045153;28;20039;-59
2023/05/21 00:31:01;;;;;;;6.53;4.15;;;14.70;99.90;;;;;;5050041;28;20339;-58
2023/05/21 00:33:27;;;;;;;5.60;4.30;;;14.60;99.90;;;;;;5054551;28;20177;-59
2023/05/21 00:35:54;;;;;;;7.63;4.55;;;14.60;99.90;;;;;;5046782;28;20043;-59
2023/05/21 00:38:20;;;;;;;4.90;4.15;;;14.60;99.90;;;;;;5048796;28;20048;-59
2023/05/21 00:40:47;;;;;;;6.07;4.15;;;14.60;99.90;;;;;;5057960;28;20048;-59
2023/05/21 00:43:13;;;;;;;7.32;4.32;;;14.60;99.90;;;;;;5062982;28;20119;-59
2023/05/21 00:45:43;;;;;;;8.95;4.10;;;14.60;99.90;;;;;;5048578;28;20036;-59
2023/05/21 00:48:10;;;;;;;6.15;4.30;;;14.60;99.90;;;;;;5060169;28;20633;-59
2023/05/21 00:50:38;;;;;;;6.07;3.90;;;14.60;99.90;;;;;;5036667;28;20818;-58
2023/05/21 00:53:08;;;;;;;7.90;4.32;;;14.60;99.90;;;;;;5040841;28;20189;-59
2023/05/21 00:55:38;;;;;;;7.03;4.15;;;14.60;99.90;;;;;;5083085;28;20059;-59
2023/05/21 00:58:04;;;;;;;7.18;4.55;;;14.60;99.90;;;;;;5070009;28;21234;-59
2023/05/21 01:00:33;;;;;;;7.05;4.22;;;14.60;99.90;;;;;;5055839;28;20040;-58
2023/05/21 01:02:59;;;;;;;5.72;4.38;;;14.60;99.90;;;;;;5052564;28;20071;-59
2023/05/21 01:05:27;;;;;;;6.35;4.25;;;14.60;99.90;;;;;;5087120;28;20036;-59
2023/05/21 01:07:54;;;;;;;8.63;4.50;;;14.60;99.90;;;;;;5049329;28;20411;-59
2023/05/21 01:10:20;;;;;;;8.38;4.75;;;14.60;99.90;;;;;;5049542;28;20041;-58
2023/05/21 01:12:47;;;;;;;7.32;4.38;;;14.60;99.90;;;;;;5068942;28;20509;-58
2023/05/21 01:15:13;;;;;;;8.07;4.57;;;14.60;99.90;;;;;;5048554;28;20483;-59
2023/05/21 01:17:40;;;;;;;8.48;4.57;;;14.60;99.90;;;;;;5055785;28;20682;-58
2023/05/21 01:20:09;;;;;;;12.23;4.90;;;14.60;99.90;;;;;;5067460;28;20097;-59
2023/05/21 01:22:40;;;;;;;6.72;4.20;;;14.60;99.90;;;;;;5053109;28;20115;-59
2023/05/21 01:25:18;;;;;;;7.65;4.63;;;14.60;99.90;;;;;;5064493;28;20039;-59
2023/05/21 01:27:44;;;;;;;8.25;4.22;;;14.60;99.90;;;;;;5068273;28;20035;-59
2023/05/21 01:30:10;;;;;;;7.85;4.88;;;14.60;99.90;;;;;;5087145;28;20032;-59
2023/05/21 01:32:43;;;;;;;9.40;4.57;;;14.60;99.90;;;;;;5070463;28;20047;-59
2023/05/21 01:35:13;;;;;;;9.07;4.72;;;14.50;99.90;;;;;;5069253;28;20047;-58
2023/05/21 01:37:49;;;;;;;6.50;4.43;;;14.50;99.90;;;;;;5067093;28;20036;-59
2023/05/21 01:40:19;;;;;;;8.52;4.55;;;14.50;99.90;;;;;;5038228;28;20051;-57
2023/05/21 01:42:46;;;;;;;7.38;4.20;;;14.50;99.90;;;;;;5085714;28;20036;-58
2023/05/21 01:45:15;;;;;;;6.57;4.22;;;14.50;99.90;;;;;;5048922;28;20135;-58
2023/05/21 01:47:47;;;;;;;8.52;4.15;;;14.50;99.90;;;;;;5061798;28;20067;-58
2023/05/21 01:50:14;;;;;;;6.78;4.28;;;14.50;99.90;;;;;;5055848;28;20530;-58
2023/05/21 01:52:51;;;;;;;7.63;4.53;;;14.50;99.90;;;;;;5060493;28;20036;-58
2023/05/21 01:55:17;;;;;;;6.40;3.80;;;14.50;99.90;;;;;;5062200;28;20040;-58
2023/05/21 01:57:42;;;;;;;6.05;4.13;;;14.40;99.90;;;;;;5046766;28;20040;-59
2023/05/21 02:00:09;;;;;;;8.95;4.82;;;14.50;99.90;;;;;;5085914;28;20100;-59
2023/05/21 02:02:35;;;;;;;7.53;4.47;;;14.40;99.90;;;;;;5047948;28;20036;-58
2023/05/21 02:05:01;;;;;;;5.90;4.57;;;14.40;99.90;;;;;;5065464;28;20483;-57
2023/05/21 02:07:27;;;;;;;8.30;5.05;;;14.40;99.90;;;;;;5085350;28;20032;-58
2023/05/21 02:09:53;;;;;;;9.45;4.57;;;14.40;99.90;;;;;;5062239;28;20399;-57
2023/05/21 02:12:19;;;;;;;7.57;4.50;;;14.40;99.90;;;;;;5070334;28;20047;-58
2023/05/21 02:14:49;;;;;;;6.63;4.70;;;14.40;99.90;;;;;;5066438;28;20046;-59
2023/05/21 02:17:16;;;;;;;8.70;5.38;;;14.40;99.90;;;;;;5067932;28;20444;-58
2023/05/21 02:19:45;;;;;;;8.23;4.80;;;14.40;99.90;;;;;;5052116;28;20040;-58
2023/05/21 02:22:10;;;;;;;9.25;5.35;;;14.40;99.90;;;;;;5066728;28;20047;-59
2023/05/21 02:24:36;;;;;;;8.30;5.00;;;14.50;99.90;;;;;;5080356;28;20483;-59
2023/05/21 02:27:02;;;;;;;11.68;6.30;;;14.40;99.90;;;;;;5064842;28;20028;-57
2023/05/21 02:29:31;;;;;;;8.45;5.18;;;14.50;99.90;;;;;;5053952;28;20369;-59
2023/05/21 02:31:56;;;;;;;11.52;6.55;;;14.40;99.90;;;;;;5066868;28;20166;-56
2023/05/21 02:34:23;;;;;;;8.45;6.60;;;14.40;99.90;;;;;;5048789;28;20131;-59
2023/05/21 02:36:52;;;;;;;9.77;5.32;;;14.40;99.90;;;;;;5053969;28;20277;-59
2023/05/21 02:39:18;;;;;;;9.35;5.50;;;14.40;99.90;;;;;;5051488;28;20056;-59
2023/05/21 02:41:47;;;;;;;10.75;6.38;;;14.50;99.90;;;;;;5058082;28;20078;-59
2023/05/21 02:44:13;;;;;;;10.60;5.90;;;14.50;99.90;;;;;;5071601;28;20192;-59
2023/05/21 02:46:39;;;;;;;12.82;6.75;;;14.40;99.90;;;;;;5062525;28;20123;-59
2023/05/21 02:49:45;;;;;;;12.23;6.75;;;14.40;99.90;;;;;;5059371;28;20521;-59
2023/05/21 02:52:11;;;;;;;11.07;6.10;;;14.40;99.90;;;;;;5073979;28;20042;-59
2023/05/21 02:54:38;;;;;;;8.90;6.10;;;14.40;99.90;;;;;;5047271;28;20067;-58
2023/05/21 02:57:04;;;;;;;11.55;6.28;;;14.40;99.90;;;;;;5065707;28;20499;-59
2023/05/21 02:59:30;;;;;;;10.15;6.18;;;14.40;99.90;;;;;;5053337;28;20079;-59
2023/05/21 03:01:56;;;;;;;9.57;6.45;;;14.40;99.90;;;;;;5070254;28;20087;-59
2023/05/21 03:04:21;;;;;;;10.80;6.30;;;14.40;99.90;;;;;;5053950;28;20289;-58
2023/05/21 03:06:50;;;;;;;10.90;5.57;;;14.40;99.90;;;;;;5076542;28;20044;-59
2023/05/21 03:09:16;;;;;;;9.52;6.85;;;14.40;99.90;;;;;;5086271;28;20403;-58
2023/05/21 03:11:42;;;;;;;11.48;6.07;;;14.40;99.90;;;;;;5029765;28;20040;-59
2023/05/21 03:14:08;;;;;;;13.32;5.90;;;14.40;99.90;;;;;;5072705;28;20051;-59
2023/05/21 03:16:34;;;;;;;10.52;5.80;;;14.40;99.90;;;;;;5068701;28;20040;-59
2023/05/21 03:19:00;;;;;;;9.32;6.15;;;14.30;99.90;;;;;;5051276;28;20522;-59
2023/05/21 03:21:28;;;;;;;11.82;6.88;;;14.30;99.90;;;;;;5032168;28;20052;-58
2023/05/21 03:23:57;;;;;;;9.02;5.78;;;14.30;99.90;;;;;;5090262;28;20502;-59
2023/05/21 03:26:26;;;;;;;8.70;5.45;;;14.30;99.90;;;;;;5041962;28;20407;-59
2023/05/21 03:28:52;;;;;;;14.35;6.40;;;14.20;99.90;;;;;;5068385;28;20479;-59
2023/05/21 03:31:18;;;;;;;12.40;5.38;;;14.10;99.90;;;;;;5037339;28;20048;-59
2023/05/21 03:33:44;;;;;;;10.45;5.93;;;14.10;99.90;;;;;;5054755;28;20036;-59
2023/05/21 03:36:10;;;;;;;11.93;6.18;;;14.10;99.90;;;;;;5069032;28;20039;-59
2023/05/21 03:38:35;;;;;;;11.30;5.80;;;14.10;99.90;;;;;;5090240;28;20205;-58
2023/05/21 03:41:01;;;;;;;12.23;6.15;;;14.00;99.90;;;;;;5067482;28;20306;-59
2023/05/21 03:43:27;;;;;;;13.45;6.43;;;14.00;99.90;;;;;;5070355;28;20502;-59
2023/05/21 03:45:53;;;;;;;10.98;6.90;;;14.00;99.90;;;;;;5070974;28;20039;-59
2023/05/21 03:48:19;;;;;;;10.45;6.00;;;13.90;99.90;;;;;;5071626;28;20048;-59
2023/05/21 03:50:45;;;;;;;11.88;6.22;;;13.90;99.90;;;;;;5090897;28;20131;-59
2023/05/21 03:53:11;;;;;;;14.80;7.45;;;13.90;99.90;;;;;;5067468;28;20044;-59
2023/05/21 03:55:37;;;;;;;14.77;7.05;;;13.90;99.90;;;;;;5039743;28;20129;-57
2023/05/21 03:58:03;;;;;;;12.18;6.03;;;13.90;99.90;;;;;;5069664;28;20060;-59
2023/05/21 04:00:28;;;;;;;12.85;6.10;;;13.90;99.90;;;;;;5049199;28;20130;-58
2023/05/21 04:02:54;;;;;;;20.05;8.18;;;13.90;99.90;;;;;;5066931;28;20043;-58
2023/05/21 04:05:20;;;;;;;8.60;6.20;;;13.90;99.90;;;;;;5066939;28;20051;-59
2023/05/21 04:07:46;;;;;;;12.82;6.20;;;13.90;99.90;;;;;;5053982;28;20032;-59
2023/05/21 04:10:12;;;;;;;12.35;6.82;;;13.90;99.90;;;;;;5066432;28;20466;-59
2023/05/21 04:12:38;;;;;;;9.93;5.93;;;14.00;99.90;;;;;;5070196;28;20055;-59
2023/05/21 04:15:07;;;;;;;13.15;6.38;;;13.90;99.90;;;;;;5069747;28;20047;-59
2023/05/21 04:17:34;;;;;;;14.13;5.88;;;14.00;99.90;;;;;;5069917;28;20051;-59
2023/05/21 04:20:00;;;;;;;10.70;6.15;;;13.90;99.90;;;;;;5068284;28;20043;-59
2023/05/21 04:22:26;;;;;;;13.63;6.00;;;13.90;99.90;;;;;;5040014;28;20039;-59
2023/05/21 04:24:54;;;;;;;14.82;5.80;;;14.00;99.90;;;;;;5069326;28;20040;-59
2023/05/21 04:27:24;;;;;;;12.35;5.85;;;13.90;99.90;;;;;;5067879;28;20040;-58
2023/05/21 04:29:49;;;;;;;14.77;6.35;;;13.90;99.90;;;;;;5051218;28;20040;-59
2023/05/21 04:32:16;;;;;;;10.70;5.38;;;14.00;99.90;;;;;;5055966;28;20046;-59
2023/05/21 04:34:43;;;;;;;13.98;5.70;;;13.90;99.90;;;;;;5049772;28;20047;-59
2023/05/21 04:37:11;;;;;;;17.48;5.97;;;13.90;99.90;;;;;;5052293;28;20054;-59
2023/05/21 04:39:37;;;;;;;9.15;5.22;;;14.00;99.90;;;;;;5070584;28;20028;-59
2023/05/21 04:42:03;;;;;;;10.60;6.38;;;14.00;99.90;;;;;;5064609;28;20093;-59
2023/05/21 04:44:29;;;;;;;14.45;5.75;;;14.00;99.90;;;;;;5070272;28;20408;-59
2023/05/21 04:47:19;;;;;;;12.75;5.40;;;14.00;99.90;;;;;;5071509;28;20445;-59
2023/05/21 04:49:45;;;;;;;11.32;5.53;;;14.00;99.90;;;;;;5070207;28;20036;-59
2023/05/21 04:52:30;;;;;;;9.90;4.85;;;14.00;99.90;;;;;;5055789;28;20043;-59
2023/05/21 04:54:56;;;;;;;10.70;5.40;;;14.00;99.90;;;;;;5070880;28;20131;-59
2023/05/21 04:57:47;;;;;;;13.27;5.97;;;14.10;99.90;;;;;;5051950;28;20044;-60
2023/05/21 05:00:13;;;;;;;11.73;5.05;;;14.10;99.90;;;;;;5069805;28;20086;-58
2023/05/21 05:02:38;;;;;;;12.18;5.50;;;14.10;99.90;;;;;;5064036;28;20499;-60
2023/05/21 05:05:07;;;;;;;9.80;5.40;;;14.00;99.90;;;;;;5069331;28;20032;-58
2023/05/21 05:07:33;;;;;;;17.20;5.30;;;14.00;99.90;;;;;;5064475;28;20386;-60
2023/05/21 05:09:59;;;;;;;12.60;5.47;;;14.10;99.90;;;;;;5020448;28;20036;-59
2023/05/21 05:12:24;;;;;;;8.60;4.60;;;14.10;99.90;;;;;;5059990;28;20394;-59
2023/05/21 05:14:50;;;;;;;10.57;5.13;;;14.10;99.90;;;;;;5063622;28;20043;-59
2023/05/21 05:17:16;;;;;;;11.35;5.00;;;14.10;99.90;;;;;;5065933;28;20043;-59
2023/05/21 05:19:41;;;;;;;8.63;4.32;;;14.10;99.90;;;;;;5068648;28;20036;-58
2023/05/21 05:22:10;;;;;;;13.25;4.70;;;14.10;99.90;;;;;;5072999;28;20483;-58
2023/05/21 05:24:36;;;;;;;9.38;5.03;;;14.20;99.90;;;;;;5068602;28;20043;-61
2023/05/21 05:27:02;;;;;;;6.20;4.22;;;14.20;99.90;;;;;;5044058;28;20032;-60
2023/05/21 05:29:27;;;;;;;10.63;4.78;;;14.20;99.90;;;;;;5069189;28;20077;-60
2023/05/21 05:31:53;;;;;;;15.68;5.88;;;14.20;99.90;;;;;;5048859;28;20426;-61
2023/05/21 05:34:19;;;;;;;8.13;4.15;;;14.20;99.90;;;;;;5068211;28;20043;-59
2023/05/21 05:36:44;;;;;;;9.98;4.43;;;14.20;99.90;;;;;;5064279;28;20051;-58
2023/05/21 05:39:10;;;;;;;11.02;5.55;;;14.20;99.90;;;;;;5049994;28;20695;-60
2023/05/21 05:41:36;;;;;;;10.15;4.28;;;14.20;99.90;;;;;;5049814;28;20086;-60
2023/05/21 05:44:02;;;;;;;11.82;5.00;;;14.30;99.90;;;;;;5040650;28;20102;-56
2023/05/21 05:46:28;;;;;;;11.13;4.28;;;14.20;99.90;;;;;;5050398;28;20032;-59
2023/05/21 05:48:57;;;;;;;9.25;4.40;;;14.30;99.90;;;;;;5049838;28;20040;-59
2023/05/21 05:51:22;;;;;;;10.90;4.25;;;14.30;99.90;;;;;;5086224;28;20258;-60
2023/05/21 05:53:48;;;;;;;9.57;4.32;;;14.40;99.90;;;;;;5085931;28;20567;-59
2023/05/21 05:56:15;;;;;;;11.50;5.05;;;14.40;99.90;;;;;;5067985;28;20032;-58
2023/05/21 05:58:41;;;;;;;8.98;4.18;;;14.40;99.90;;;;;;5053171;28;20046;-60
2023/05/21 06:01:07;;;;;;;8.43;4.35;;;14.50;99.90;;;;;;5049468;28;20044;-61
2023/05/21 06:03:33;;;;;;;10.90;4.07;;;14.50;99.90;;;;;;5063733;28;20055;-57
2023/05/21 06:05:58;;;;;;;14.25;5.07;;;14.60;99.90;;;;;;5064312;28;20036;-58
2023/05/21 06:08:27;;;;;;;8.15;4.70;;;14.60;99.90;;;;;;5051674;28;20483;-57
2023/05/21 06:10:53;;;;;;;9.88;4.22;;;14.60;99.90;;;;;;5048672;28;20032;-60
2023/05/21 06:13:19;;;;;;;7.90;3.80;;;14.60;99.90;;;;;;5041055;28;20434;-59
2023/05/21 06:15:45;;;;;;;11.13;4.97;;;14.60;99.90;;;;;;5074385;28;20404;-59
2023/05/21 06:18:10;;;;;;;10.27;4.25;;;14.70;99.90;;;;;;5063388;28;20040;-59
2023/05/21 06:20:36;;;;;;;10.15;4.82;;;14.70;99.90;;;;;;5064588;28;20078;-60
2023/05/21 06:23:02;;;;;;;11.25;4.88;;;14.70;99.90;;;;;;5034445;28;20457;-60
2023/05/21 06:25:27;;;;;;;10.98;5.05;;;14.70;99.90;;;;;;5065709;28;20085;-60
2023/05/21 06:27:53;;;;;;;10.02;4.43;;;14.80;99.90;;;;;;5068833;28;20119;-58
2023/05/21 06:30:19;;;;;;;10.32;4.47;;;14.80;99.90;;;;;;5084358;28;20479;-60
2023/05/21 06:32:45;;;;;;;10.32;4.30;;;14.80;99.90;;;;;;5050052;28;20031;-59
2023/05/21 06:35:14;;;;;;;12.88;4.75;;;14.90;99.90;;;;;;5068489;28;20434;-57
2023/05/21 06:37:39;;;;;;;12.00;4.30;;;14.90;99.90;;;;;;5085638;28;20162;-57
2023/05/21 06:40:06;;;;;;;11.63;4.85;;;15.00;99.90;;;;;;5049595;28;20515;-60
2023/05/21 06:42:32;;;;;;;9.20;3.80;;;15.00;99.90;;;;;;5067366;28;20066;-60
2023/05/21 06:44:58;;;;;;;12.82;4.85;;;15.00;99.90;;;;;;5071281;28;20082;-60
2023/05/21 06:47:24;;;;;;;11.40;4.32;;;15.10;99.90;;;;;;5047828;28;20052;-60
2023/05/21 06:49:50;;;;;;;7.68;3.97;;;15.20;99.90;;;;;;5067731;28;20063;-60
2023/05/21 06:52:15;;;;;;;10.25;4.28;;;15.30;99.90;;;;;;5045124;28;20043;-60
2023/05/21 06:54:41;;;;;;;9.80;4.40;;;15.40;99.90;;;;;;5064880;28;20043;-59
2023/05/21 06:57:07;;;;;;;9.38;4.25;;;15.50;99.90;;;;;;5047140;28;20036;-58
2023/05/21 06:59:32;;;;;;;12.50;4.53;;;15.60;99.90;;;;;;5048411;28;20079;-60
2023/05/21 07:02:01;;;;;;;6.32;3.65;;;15.60;99.90;;;;;;5061922;28;20047;-61
2023/05/21 07:04:27;;;;;;;12.48;4.70;;;15.60;99.90;;;;;;5066712;28;20036;-60
2023/05/21 07:06:53;;;;;;;9.02;3.72;;;15.60;99.90;;;;;;5064829;28;20058;-61
2023/05/21 07:09:19;;;;;;;10.70;4.35;;;15.70;99.90;;;;;;5067299;28;20044;-61
2023/05/21 07:11:44;;;;;;;11.23;4.03;;;15.80;99.90;;;;;;5062105;28;20544;-61
2023/05/21 07:14:10;;;;;;;12.35;4.18;;;16.00;99.90;;;;;;5056102;28;20060;-60
2023/05/21 07:16:36;;;;;;;9.32;3.92;;;16.20;99.90;;;;;;5067899;28;20043;-60
2023/05/21 07:19:02;;;;;;;8.68;4.00;;;16.30;99.90;;;;;;5068615;28;20036;-61
2023/05/21 07:21:27;;;;;;;9.18;4.15;;;16.50;99.90;;;;;;5086851;28;20043;-60
2023/05/21 07:23:53;;;;;;;7.55;4.18;;;16.70;99.90;;;;;;5048772;28;20468;-60
2023/05/21 07:26:20;;;;;;;10.90;4.22;;;16.80;99.90;;;;;;5064883;28;20051;-60
2023/05/21 07:28:45;;;;;;;7.60;3.80;;;16.90;99.90;;;;;;5037972;28;20041;-60
2023/05/21 07:31:11;;;;;;;9.45;3.97;;;16.80;99.90;;;;;;5064681;28;20101;-60
2023/05/21 07:33:37;;;;;;;7.30;3.78;;;16.70;99.90;;;;;;5049102;28;20043;-60
2023/05/21 07:36:06;;;;;;;7.93;4.13;;;16.70;99.90;;;;;;5069259;28;20146;-61
2023/05/21 07:38:32;;;;;;;10.77;3.75;;;16.70;99.90;;;;;;5067756;28;20566;-60
2023/05/21 07:41:01;;;;;;;10.38;3.55;;;16.80;99.90;;;;;;5062032;28;20044;-60
2023/05/21 07:43:26;;;;;;;6.78;3.95;;;16.90;99.90;;;;;;5065080;28;20067;-61
2023/05/21 07:45:52;;;;;;;7.93;3.58;;;16.90;99.90;;;;;;5065046;28;20457;-59
2023/05/21 07:48:18;;;;;;;6.32;3.47;;;17.00;99.90;;;;;;5074033;28;20044;-60
2023/05/21 07:50:44;;;;;;;10.10;3.80;;;17.00;99.90;;;;;;5068504;28;20442;-61
2023/05/21 07:53:10;;;;;;;7.18;3.53;;;17.00;99.90;;;;;;5071158;28;20406;-60
2023/05/21 07:55:46;;;;;;;6.38;3.35;;;16.90;99.90;;;;;;5052172;28;20579;-60
2023/05/21 07:58:15;;;;;;;8.27;4.10;;;16.90;99.90;;;;;;5054827;28;20123;-59
2023/05/21 08:00:46;;;;;;;9.30;3.95;;;16.80;99.90;;;;;;5058978;28;20037;-60
2023/05/21 08:03:16;;;;;;;5.82;3.65;;;16.80;99.90;;;;;;5068645;28;20082;-61
2023/05/21 08:05:49;;;;;;;7.63;3.78;;;16.70;99.90;;;;;;5061768;28;20452;-61
2023/05/21 08:08:19;;;;;;;11.75;3.80;;;16.70;99.90;;;;;;5049886;28;20498;-58
2023/05/21 08:10:45;;;;;;;8.10;3.50;;;16.60;99.90;;;;;;5044599;28;20036;-59
2023/05/21 08:13:11;;;;;;;9.10;3.88;;;16.70;99.90;;;;;;5063326;28;20032;-60
2023/05/21 08:15:37;;;;;;;8.32;3.67;;;16.70;99.90;;;;;;5046777;28;20038;-60
2023/05/21 08:18:06;;;;;;;8.50;4.00;;;16.70;99.90;;;;;;5066828;28;20346;-57
2023/05/21 08:20:32;;;;;;;5.65;3.22;;;16.70;99.90;;;;;;5065397;28;20117;-58
2023/05/21 08:23:01;;;;;;;7.38;3.70;;;16.70;99.90;;;;;;5047780;28;20044;-60
2023/05/21 08:25:27;;;;;;;6.90;3.45;;;16.60;99.90;;;;;;5061618;28;20032;-60
2023/05/21 08:27:53;;;;;;;6.93;3.70;;;16.70;99.90;;;;;;5047610;28;20039;-60
2023/05/21 08:30:19;;;;;;;6.32;3.55;;;16.70;99.90;;;;;;5062269;28;20032;-60
2023/05/21 08:32:45;;;;;;;9.15;3.47;;;16.80;99.90;;;;;;5063643;28;20040;-60
2023/05/21 08:35:11;;;;;;;6.50;3.15;;;16.80;99.90;;;;;;5069861;28;20054;-60
2023/05/21 08:37:37;;;;;;;8.77;4.03;;;16.90;99.90;;;;;;5059985;28;20036;-58
2023/05/21 08:40:03;;;;;;;10.05;3.80;;;17.10;99.90;;;;;;5081533;28;20123;-60
2023/05/21 08:42:41;;;;;;;6.60;3.50;;;17.10;99.90;;;;;;5063188;28;20485;-60
2023/05/21 08:45:13;;;;;;;5.78;3.13;;;17.20;99.90;;;;;;5061229;28;20477;-61
2023/05/21 08:47:43;;;;;;;9.27;3.97;;;17.10;99.90;;;;;;5064839;28;20414;-60
2023/05/21 08:50:15;;;;;;;6.43;3.28;;;17.00;99.90;;;;;;5061163;28;20040;-60
2023/05/21 08:52:41;;;;;;;8.93;3.50;;;16.80;99.90;;;;;;5065654;28;20071;-61
2023/05/21 08:55:08;;;;;;;9.73;3.85;;;16.80;99.90;;;;;;5063937;28;20075;-60
2023/05/21 08:57:34;;;;;;;11.82;3.78;;;16.80;99.90;;;;;;5066189;28;20495;-61
2023/05/21 09:00:01;;;;;;;7.28;3.17;;;16.70;99.90;;;;;;5064141;28;20052;-60
2023/05/21 09:02:32;;;;;;;8.48;3.90;;;16.60;99.90;;;;;;5065726;28;20153;-61
2023/05/21 09:05:01;;;;;;;9.63;3.58;;;16.60;99.90;;;;;;5084146;28;20044;-60
2023/05/21 09:07:29;;;;;;;6.82;3.63;;;16.60;99.90;;;;;;5063042;28;20050;-60
2023/05/21 09:09:57;;;;;;;8.52;3.58;;;16.70;99.90;;;;;;5081607;28;20058;-58
2023/05/21 09:12:30;;;;;;;8.25;3.65;;;16.80;99.90;;;;;;5047927;28;20040;-61
2023/05/21 09:15:00;;;;;;;7.63;3.43;;;16.90;99.90;;;;;;5051571;28;20446;-59
2023/05/21 09:17:26;;;;;;;7.95;3.83;;;17.00;99.90;;;;;;5047913;28;20895;-62
2023/05/21 09:20:13;;;;;;;13.65;4.13;;;17.10;99.90;;;;;;5062260;28;20119;-61
2023/05/21 09:22:47;;;;;;;5.90;3.28;;;17.20;99.90;;;;;;5058835;28;20036;-60
2023/05/21 09:25:20;;;;;;;10.60;3.70;;;17.30;99.90;;;;;;5046744;28;20552;-60
2023/05/21 09:27:46;;;;;;;8.68;3.35;;;17.40;99.90;;;;;;5050769;28;20051;-62
2023/05/21 09:30:14;;;;;;;9.15;3.63;;;17.50;99.90;;;;;;5080536;28;20040;-60
2023/05/21 09:32:40;;;;;;;8.00;4.18;;;17.60;99.90;;;;;;5045905;28;20584;-62
2023/05/21 09:35:13;;;;;;;9.75;3.65;;;17.70;99.90;;;;;;5062433;28;20040;-62
2023/05/21 09:37:44;;;;;;;9.57;4.47;;;17.70;99.90;;;;;;5061813;28;20039;-60
2023/05/21 09:40:14;;;;;;;7.82;3.97;;;17.80;99.90;;;;;;5047060;28;20048;-58
2023/05/21 09:42:53;;;;;;;9.75;3.78;;;17.80;99.90;;;;;;5061845;28;20066;-60
2023/05/21 09:45:20;;;;;;;7.75;3.60;;;17.90;99.90;;;;;;5062009;28;20044;-61
2023/05/21 09:47:47;;;;;;;7.32;3.60;;;18.00;99.90;;;;;;5057429;28;20054;-60
2023/05/21 09:50:17;;;;;;;7.72;3.85;;;18.10;99.90;;;;;;5045046;28;20096;-60
2023/05/21 09:52:43;;;;;;;7.95;3.85;;;18.20;99.90;;;;;;5058276;28;20074;-60
2023/05/21 09:55:13;;;;;;;8.63;3.80;;;18.20;99.90;;;;;;5030780;28;20072;-60
2023/05/21 09:57:44;;;;;;;9.98;4.18;;;18.30;99.90;;;;;;5063764;28;20059;-60
2023/05/21 10:00:18;;;;;;;8.05;4.07;;;18.30;99.90;;;;;;5054646;28;20068;-60
2023/05/21 10:02:45;;;;;;;9.00;3.63;;;18.30;99.90;;;;;;5045036;28;20086;-59
2023/05/21 10:05:13;;;;;;;9.45;3.75;;;18.20;99.90;;;;;;5065394;28;20039;-60
2023/05/21 10:07:43;;;;;;;7.85;3.50;;;18.30;99.90;;;;;;5083736;28;20055;-60
2023/05/21 10:10:13;;;;;;;7.70;3.65;;;18.30;99.90;;;;;;5061468;28;20070;-61
2023/05/21 10:12:57;;;;;;;9.32;4.32;;;18.20;99.90;;;;;;5056373;28;20043;-57
2023/05/21 10:15:24;;;;;;;6.68;3.33;;;18.20;99.90;;;;;;5045970;28;20145;-61
2023/05/21 10:17:51;;;;;;;8.40;3.83;;;18.20;99.90;;;;;;5044580;28;20426;-61
2023/05/21 10:20:17;;;;;;;6.32;3.30;;;18.30;99.90;;;;;;5078053;28;20048;-60
2023/05/21 10:22:43;;;;;;;7.22;3.63;;;18.30;99.90;;;;;;5081225;28;20047;-61
2023/05/21 10:25:11;;;;;;;6.45;3.10;;;18.30;99.90;;;;;;5063412;28;20036;-62
2023/05/21 10:27:38;;;;;;;8.77;3.65;;;18.30;99.90;;;;;;5077214;28;20500;-60
2023/05/21 10:30:05;;;;;;;8.63;3.88;;;18.50;99.90;;;;;;5048579;28;20312;-60
2023/05/21 10:32:31;;;;;;;7.63;3.60;;;18.60;99.90;;;;;;5060326;28;20499;-60
2023/05/21 10:34:58;;;;;;;7.10;3.13;;;18.70;99.90;;;;;;5060118;28;20055;-59
2023/05/21 10:37:26;;;;;;;10.90;3.92;;;18.90;99.90;;;;;;5037181;28;20636;-60
2023/05/21 10:39:55;;;;;;;11.48;3.53;;;19.10;99.90;;;;;;5073380;28;20044;-59
2023/05/21 10:42:30;;;;;;;10.20;4.65;;;19.40;99.90;;;;;;5044003;28;20507;-59
2023/05/21 10:45:10;;;;;;;8.95;3.88;;;19.50;99.90;;;;;;5056174;28;20116;-59
2023/05/21 10:48:03;;;;;;;9.60;4.63;;;19.50;99.90;;;;;;5043214;28;20037;-59
2023/05/21 10:50:42;;;;;;;7.03;3.80;;;19.50;99.90;;;;;;5028619;28;20055;-60
2023/05/21 10:53:27;;;;;;;9.00;4.18;;;19.30;99.90;;;;;;5066329;28;20058;-59
2023/05/21 10:56:12;;;;;;;9.40;3.92;;;19.30;99.90;;;;;;5047267;28;20036;-60
2023/05/21 10:58:48;;;;;;;7.88;4.45;;;19.40;99.90;;;;;;5065494;28;20048;-60
2023/05/21 11:01:18;;;;;;;6.97;3.60;;;19.40;99.90;;;;;;5065012;28;20609;-59
2023/05/21 11:03:47;;;;;;;7.80;3.90;;;19.40;99.90;;;;;;5048527;28;20422;-61
2023/05/21 11:06:23;;;;;;;11.57;3.95;;;19.60;99.90;;;;;;5060885;28;20052;-60
2023/05/21 11:08:50;;;;;;;8.50;3.67;;;19.70;99.90;;;;;;5062847;28;20047;-59
2023/05/21 11:11:49;;;;;;;6.32;3.97;;;19.80;99.90;;;;;;5063030;28;20399;-58
2023/05/21 11:14:38;;;;;;;15.45;5.22;;;19.80;99.90;;;;;;5065121;28;20063;-62
2023/05/21 11:17:13;;;;;;;12.23;4.43;;;19.80;99.90;;;;;;5044104;28;20510;-58
2023/05/21 11:19:45;;;;;;;9.70;3.67;;;19.90;99.90;;;;;;5068604;28;20123;-59
2023/05/21 11:22:20;;;;;;;7.80;4.07;;;20.00;99.90;;;;;;5054391;28;20119;-59
2023/05/21 11:24:47;;;;;;;10.40;4.45;;;20.10;99.90;;;;;;5080700;28;20033;-59
2023/05/21 11:27:28;;;;;;;10.35;4.22;;;20.10;99.90;;;;;;5074456;28;20096;-58
2023/05/21 11:29:54;;;;;;;7.30;3.85;;;19.90;99.90;;;;;;5070338;28;20169;-59
2023/05/21 11:32:22;;;;;;;10.50;4.38;;;20.20;99.90;;;;;;5072077;28;20271;-59
2023/05/21 11:34:49;;;;;;;8.85;4.22;;;20.40;99.90;;;;;;5066818;28;20495;-59
2023/05/21 11:37:17;;;;;;;8.38;4.55;;;20.30;99.90;;;;;;5057272;28;20071;-59
2023/05/21 11:39:44;;;;;;;7.40;4.28;;;20.30;99.90;;;;;;5071063;28;20039;-58
2023/05/21 11:42:10;;;;;;;10.65;4.55;;;20.20;99.90;;;;;;5084464;28;20067;-57
2023/05/21 11:44:46;;;;;;;7.13;4.20;;;20.30;99.90;;;;;;5046977;28;20123;-58
2023/05/21 11:47:14;;;;;;;8.18;3.70;;;20.50;99.90;;;;;;5089289;28;20047;-59
2023/05/21 11:49:41;;;;;;;6.80;4.03;;;20.70;99.90;;;;;;5064627;28;20500;-59
2023/05/21 11:52:08;;;;;;;9.55;4.35;;;20.90;99.90;;;;;;5061808;28;20044;-59
2023/05/21 11:54:47;;;;;;;10.70;3.85;;;20.80;99.60;;;;;;5074877;28;20166;-59
2023/05/21 11:57:16;;;;;;;9.10;3.90;;;20.60;99.50;;;;;;5045608;28;20044;-59
2023/05/21 11:59:42;;;;;;;10.43;4.38;;;20.60;99.80;;;;;;5074334;28;20083;-58
2023/05/21 12:02:07;;;;;;;13.43;4.53;;;20.60;99.90;;;;;;5062716;28;20033;-58
2023/05/21 12:04:38;;;;;;;6.53;3.83;;;20.60;99.90;;;;;;5047079;28;20097;-59
2023/05/21 12:07:08;;;;;;;6.82;3.80;;;20.40;99.50;;;;;;5082650;28;20048;-58
2023/05/21 12:09:41;;;;;;;6.65;3.70;;;20.50;99.90;;;;;;5054558;28;20123;-58
2023/05/21 12:12:14;;;;;;;9.20;5.03;;;20.60;99.30;;;;;;5067014;28;20071;-58
2023/05/21 12:14:49;;;;;;;;;;;20.70;99.90;;;;;;5079224;28;20036;-59
2023/05/21 12:17:16;;;;;;;8.88;4.38;;;20.90;99.60;;;;;;5066964;28;19916;-58
2023/05/21 12:19:42;;;;;;;8.73;4.03;;;21.00;99.30;;;;;;5063358;28;20669;-58
2023/05/21 12:22:08;;;;;;;10.57;4.80;;;21.10;99.50;;;;;;5064367;28;20058;-58
2023/05/21 12:24:36;;;;;;;9.70;4.82;;;21.10;99.60;;;;;;5064479;28;20044;-61
2023/05/21 12:27:08;;;;;;;10.23;4.55;;;21.10;99.50;;;;;;5088819;28;20043;-58
2023/05/21 12:29:36;;;;;;;10.77;7.15;;;21.20;99.20;;;;;;5071825;28;20040;-58
2023/05/21 12:32:05;;;;;;;10.40;6.30;;;21.10;99.20;;;;;;5070236;28;20089;-58
2023/05/21 12:34:51;;;;;;;11.25;5.85;;;21.10;99.20;;;;;;5066034;28;20071;-61
2023/05/21 12:37:31;;;;;;;9.57;4.93;;;21.10;99.30;;;;;;5076253;28;20048;-60
2023/05/21 12:40:06;;;;;;;7.03;4.47;;;21.30;99.30;;;;;;5063544;28;20110;-58
2023/05/21 12:42:35;;;;;;;6.28;4.40;;;21.30;99.80;;;;;;5065216;28;20032;-63
2023/05/21 12:45:10;;;;;;;10.77;5.28;;;21.30;99.90;;;;;;5071362;28;20036;-59
2023/05/21 12:47:36;;;;;;;10.55;4.97;;;21.30;99.60;;;;;;5044827;28;20047;-59
2023/05/21 12:50:12;;;;;;;9.98;5.47;;;21.30;99.40;;;;;;5050343;28;20527;-59